Time;durP1;ratioP1;P1;durP2;ratioP2;P2;SDS_P1;SDS_P2;PMS_P1;PMS_P2;Temp;Humidity;BMP_temperature;BMP_pressure;BME280_temperature;BME280_humidity;BME280_pressure;Samples;Min_cycle;Max_cycle;Signal;HPM_P1;HPM_P2
2023/10/18 03:54:27;;;;;;;;;;;;;;;;;;5110616;28;19943;-78
2023/10/18 03:56:53;;;;;;;;;;;;;;;;;;5098700;28;19924;-77
2023/10/18 03:59:21;;;;;;;;;;;;;;;;;;5096700;28;19947;-76
2023/10/18 04:02:07;;;;;;;;;;;;;;;;;;5090255;28;19978;-77
2023/10/18 04:04:36;;;;;;;;;;;;;;;;;;5088083;22;19974;-75
2023/10/18 04:07:12;;;;;;;;;;;;;;;;;;5074887;28;19924;-75
2023/10/18 04:09:40;;;;;;;;;;;;;;;;;;5074546;28;19971;-75
2023/10/18 04:12:08;;;;;;;;;;;;;;;;;;5074756;28;19924;-76
2023/10/18 04:14:37;;;;;;;;;;;;;;;;;;5071012;28;19960;-75
2023/10/18 04:17:18;;;;;;;;;;;;;;;;;;5054601;28;19987;-75
2023/10/18 04:19:45;;;;;;;;;;;;;;;;;;5054402;28;20360;-76
2023/10/18 04:22:13;;;;;;;;;;;;;;;;;;5054513;28;19924;-74
2023/10/18 04:24:40;;;;;;;;;;;;;;;;;;5054537;28;19925;-75
2023/10/18 04:27:07;;;;;;;;;;;;;;;;;;5054675;28;19924;-76
2023/10/18 04:29:39;;;;;;;;;;;;;;;;;;5054455;28;19924;-76
2023/10/18 04:32:15;;;;;;;;;;;;;;;;;;5054837;28;20016;-75
2023/10/18 04:34:44;;;;;;;;;;;;;;;;;;5055065;28;19924;-76
2023/10/18 04:37:12;;;;;;;;;;;;;;;;;;5054283;28;19924;-75
2023/10/18 04:39:40;;;;;;;;;;;;;;;;;;5054342;28;19925;-76
2023/10/18 04:42:08;;;;;;;;;;;;;;;;;;5054219;28;19964;-76
2023/10/18 04:44:35;;;;;;;;;;;;;;;;;;5054865;28;19947;-76
2023/10/18 04:47:14;;;;;;;;;;;;;;;;;;5055457;28;19932;-77
2023/10/18 04:49:40;;;;;;;;;;;;;;;;;;5055071;28;19947;-77
2023/10/18 04:52:08;;;;;;;;;;;;;;;;;;5054311;28;19935;-76
2023/10/18 04:54:41;;;;;;;;;;;;;;;;;;5054960;28;19925;-76
2023/10/18 04:57:10;;;;;;;;;;;;;;;;;;5055114;28;19928;-77
2023/10/18 04:59:46;;;;;;;;;;;;;;;;;;5053971;28;19940;-75
2023/10/18 05:02:17;;;;;;;;;;;;;;;;;;5055500;28;19928;-77
2023/10/18 05:04:44;;;;;;;;;;;;;;;;;;5054928;28;19921;-76
2023/10/18 05:07:14;;;;;;;;;;;;;;;;;;5054817;28;19925;-76
2023/10/18 05:09:43;;;;;;;;;;;;;;;;;;5054407;28;19970;-76
2023/10/18 05:12:16;;;;;;;;;;;;;;;;;;5054793;28;19984;-76
2023/10/18 05:14:43;;;;;;;;;;;;;;;;;;5054415;28;19925;-76
2023/10/18 05:17:17;;;;;;;;;;;;;;;;;;5053918;28;19925;-76
2023/10/18 05:19:44;;;;;;;;;;;;;;;;;;5053845;28;20015;-76
2023/10/18 05:22:16;;;;;;;;;;;;;;;;;;5053630;28;19925;-75
2023/10/18 05:24:43;;;;;;;;;;;;;;;;;;5053490;28;20370;-77
2023/10/18 05:27:24;;;;;;;;;;;;;;;;;;5053764;28;19924;-77
2023/10/18 05:29:52;;;;;;;;;;;;;;;;;;5053665;28;19924;-77
2023/10/18 05:32:37;;;;;;;;;;;;;;;;;;5054363;28;19932;-79
2023/10/18 05:35:19;;;;;;;;;;;;;;;;;;5056456;28;20011;-79
2023/10/18 05:37:50;;;;;;;;;;;;;;;;;;5056234;28;19987;-79
2023/10/18 10:55:22;;;;;;;;;;;;;;;;;;5055823;28;19931;-77
2023/10/18 10:57:49;;;;;;;;;;;;;;;;;;5056181;28;19925;-76
2023/10/18 11:03:06;;;;;;;;;;;;;;;;;;5052498;28;19920;-76
2023/10/18 11:05:36;;;;;;;;;;;;;;;;;;5036206;28;20393;-76
2023/10/18 11:08:05;;;;;;;;;;;;;;;;;;5036186;28;19925;-76
2023/10/18 11:10:32;;;;;;;;;;;;;;;;;;5036181;28;19983;-76
2023/10/18 11:12:59;;;;;;;;;;;;;;;;;;5036842;28;19925;-76
2023/10/18 11:15:27;;;;;;;;;;;;;;;;;;5036065;28;19933;-76
2023/10/18 11:18:09;;;;;;;;;;;;;;;;;;5036908;28;19975;-76
2023/10/18 11:20:48;;;;;;;;;;;;;;;;;;5036988;28;19979;-76
2023/10/18 11:23:15;;;;;;;;;;;;;;;;;;5036660;28;19925;-76
2023/10/18 11:25:42;;;;;;;;;;;;;;;;;;5036631;28;20000;-76
2023/10/18 11:28:28;;;;;;;;;;;;;;;;;;5037004;28;19983;-76
2023/10/18 11:30:56;;;;;;;;;;;;;;;;;;5036090;28;19929;-76
2023/10/18 11:33:25;;;;;;;;;;;;;;;;;;5036639;28;19926;-76
2023/10/18 11:35:54;;;;;;;;;;;;;;;;;;5036525;28;19932;-76
2023/10/18 11:38:21;;;;;;;;;;;;;;;;;;5036697;28;20314;-76
2023/10/18 11:40:48;;;;;;;;;;;;;;;;;;5036136;28;19925;-74
2023/10/18 11:43:20;;;;;;;;;;;;;;;;;;5036444;28;19922;-76
2023/10/18 11:45:48;;;;;;;;;;;;;;;;;;5037006;28;19932;-75
2023/10/18 11:48:16;;;;;;;;;;;;;;;;;;5036611;28;20020;-75
2023/10/18 11:50:43;;;;;;;;;;;;;;;;;;5036585;28;19926;-75
2023/10/18 11:53:12;;;;;;;;;;;;;;;;;;5036038;28;19948;-75
2023/10/18 11:55:39;;;;;;;;;;;;;;;;;;5036177;28;19925;-75
2023/10/18 11:58:08;;;;;;;;;;;;;;;;;;5036091;28;19929;-75
2023/10/18 12:00:38;;;;;;;;;;;;;;;;;;5036332;28;20000;-76
2023/10/18 12:03:08;;;;;;;;;;;;;;;;;;5035940;28;19928;-76
2023/10/18 12:05:36;;;;;;;;;;;;;;;;;;5036457;28;19925;-76
2023/10/18 12:08:05;;;;;;;;;;;;;;;;;;5035948;28;20442;-76
2023/10/18 12:10:35;;;;;;;;;;;;;;;;;;5036865;28;19932;-75
2023/10/18 12:13:06;;;;;;;;;;;;;;;;;;5037230;28;19929;-75
2023/10/18 12:15:33;;;;;;;;;;;;;;;;;;5036865;28;19975;-75
2023/10/18 12:18:03;;;;;;;;;;;;;;;;;;5036443;28;20267;-76
2023/10/18 12:20:35;;;;;;;;;;;;;;;;;;5035007;28;20008;-76
2023/10/18 12:23:03;;;;;;;;;;;;;;;;;;5034519;28;20337;-76
2023/10/18 12:25:32;;;;;;;;;;;;;;;;;;5034601;28;20339;-75
2023/10/18 12:28:00;;;;;;;;;;;;;;;;;;5034438;28;20390;-76
2023/10/18 12:30:35;;;;;;;;;;;;;;;;;;5034159;28;20089;-76
2023/10/18 12:33:05;;;;;;;;;;;;;;;;;;5035584;28;19932;-77
2023/10/18 12:35:32;;;;;;;;;;;;;;;;;;5035058;28;19979;-77
2023/10/18 12:37:59;;;;;;;;;;;;;;;;;;5034453;28;19932;-77
2023/10/18 12:40:31;;;;;;;;;;;;;;;;;;5034504;28;19932;-77
2023/10/18 12:43:00;;;;;;;;;;;;;;;;;;5034002;28;20358;-77
2023/10/18 12:45:27;;;;;;;;;;;;;;;;;;5034051;28;20401;-77
2023/10/18 12:47:55;;;;;;;;;;;;;;;;;;5034296;28;19925;-74
2023/10/18 12:50:27;;;;;;;;;;;;;;;;;;5035922;28;19960;-78
2023/10/18 12:52:55;;;;;;;;;;;;;;;;;;5035157;28;19931;-78
2023/10/18 12:58:10;;;;;;;;;;;;;;;;;;5030012;28;19979;-78
2023/10/18 13:00:42;;;;;;;;;;;;;;;;;;5034605;28;19925;-77
2023/10/18 13:03:32;;;;;;;;;;;;;;;;;;5034313;28;19928;-77
2023/10/18 13:05:58;;;;;;;;;;;;;;;;;;5034321;28;20020;-77
2023/10/18 13:08:26;;;;;;;;;;;;;;;;;;5034399;28;20354;-77
2023/10/18 13:11:18;;;;;;;;;;;;;;;;;;5034362;28;19929;-77
2023/10/18 13:13:44;;;;;;;;;;;;;;;;;;5034367;28;19925;-77
2023/10/18 13:16:14;;;;;;;;;;;;;;;;;;5034045;28;20397;-77
2023/10/18 13:18:41;;;;;;;;;;;;;;;;;;5034332;28;19925;-77
2023/10/18 13:21:11;;;;;;;;;;;;;;;;;;5034167;28;19925;-77
2023/10/18 13:23:39;;;;;;;;;;;;;;;;;;5034110;28;19933;-77
2023/10/18 13:26:09;;;;;;;;;;;;;;;;;;5033831;28;20378;-76
2023/10/18 13:28:48;;;;;;;;;;;;;;;;;;5034108;28;20016;-77
2023/10/18 13:31:22;;;;;;;;;;;;;;;;;;5038782;28;19925;-79
2023/10/18 13:33:52;;;;;;;;;;;;;;;;;;5037539;28;19932;-78
2023/10/18 13:36:21;;;;;;;;;;;;;;;;;;5039025;28;19931;-79
2023/10/18 13:38:49;;;;;;;;;;;;;;;;;;5039460;28;19929;-77
2023/10/18 13:41:16;;;;;;;;;;;;;;;;;;5043586;28;19925;-77
2023/10/18 13:43:43;;;;;;;;;;;;;;;;;;5042746;28;19968;-77
2023/10/18 13:46:18;;;;;;;;;;;;;;;;;;5038822;28;19925;-78
2023/10/18 13:48:46;;;;;;;;;;;;;;;;;;5040529;28;19979;-77
2023/10/18 13:51:13;;;;;;;;;;;;;;;;;;5037838;28;19929;-77
2023/10/18 13:53:41;;;;;;;;;;;;;;;;;;5037589;28;19933;-77
2023/10/18 13:56:09;;;;;;;;;;;;;;;;;;5037355;28;19967;-76
2023/10/18 13:58:36;;;;;;;;;;;;;;;;;;5037391;28;19925;-76
2023/10/18 14:01:05;;;;;;;;;;;;;;;;;;5037299;28;19932;-76
2023/10/18 14:03:32;;;;;;;;;;;;;;;;;;5037429;28;19925;-76
2023/10/18 14:05:59;;;;;;;;;;;;;;;;;;5037605;28;19925;-76
2023/10/18 14:08:26;;;;;;;;;;;;;;;;;;5037560;28;19925;-76
2023/10/18 14:10:55;;;;;;;;;;;;;;;;;;5037532;28;19932;-77
2023/10/18 14:13:23;;;;;;;;;;;;;;;;;;5037836;28;19932;-76
2023/10/18 14:15:50;;;;;;;;;;;;;;;;;;5039121;28;20398;-77
2023/10/18 14:18:16;;;;;;;;;;;;;;;;;;5040565;28;19925;-77
2023/10/18 14:20:50;;;;;;;;;;;;;;;;;;5037928;28;20298;-76
2023/10/18 14:23:19;;;;;;;;;;;;;;;;;;5036990;28;19964;-76
2023/10/18 14:25:46;;;;;;;;;;;;;;;;;;5036905;28;19925;-76
2023/10/18 14:28:13;;;;;;;;;;;;;;;;;;5036637;28;20398;-76
2023/10/18 14:30:40;;;;;;;;;;;;;;;;;;5036546;28;19932;-76
2023/10/18 14:33:07;;;;;;;;;;;;;;;;;;5036727;28;19925;-75
2023/10/18 14:35:34;;;;;;;;;;;;;;;;;;5036410;28;20405;-75
2023/10/18 14:38:06;;;;;;;;;;;;;;;;;;5036725;28;19929;-75
2023/10/18 14:40:34;;;;;;;;;;;;;;;;;;5036696;28;19932;-75
2023/10/18 14:43:01;;;;;;;;;;;;;;;;;;5036634;28;20016;-75
2023/10/18 14:45:32;;;;;;;;;;;;;;;;;;5036664;28;19932;-75
2023/10/18 14:47:59;;;;;;;;;;;;;;;;;;5036177;28;20457;-75
2023/10/18 14:50:26;;;;;;;;;;;;;;;;;;5036480;28;19925;-76
2023/10/18 14:52:53;;;;;;;;;;;;;;;;;;5036081;28;19925;-75
2023/10/18 14:55:22;;;;;;;;;;;;;;;;;;5036260;28;19932;-75
2023/10/18 14:57:48;;;;;;;;;;;;;;;;;;5036734;28;19983;-75
2023/10/18 15:00:19;;;;;;;;;;;;;;;;;;5036677;28;19932;-77
2023/10/18 15:02:48;;;;;;;;;;;;;;;;;;5036776;28;19925;-75
2023/10/18 15:05:15;;;;;;;;;;;;;;;;;;5036187;28;20294;-76
2023/10/18 15:07:42;;;;;;;;;;;;;;;;;;5036006;28;20442;-76
2023/10/18 15:10:09;;;;;;;;;;;;;;;;;;5035770;28;20374;-76
2023/10/18 15:12:37;;;;;;;;;;;;;;;;;;5036016;28;20000;-76
2023/10/18 15:15:03;;;;;;;;;;;;;;;;;;5036039;28;19925;-77
2023/10/18 15:17:30;;;;;;;;;;;;;;;;;;5036288;28;19926;-77
2023/10/18 15:19:57;;;;;;;;;;;;;;;;;;5036697;28;19925;-76
2023/10/18 15:22:26;;;;;;;;;;;;;;;;;;5036643;28;19932;-77
2023/10/18 15:24:55;;;;;;;;;;;;;;;;;;5036208;28;19932;-77
2023/10/18 15:27:22;;;;;;;;;;;;;;;;;;5036173;28;19932;-77
2023/10/18 15:29:52;;;;;;;;;;;;;;;;;;5035872;28;20414;-77
2023/10/18 15:32:19;;;;;;;;;;;;;;;;;;5035874;28;19969;-77
2023/10/18 15:34:46;;;;;;;;;;;;;;;;;;5035842;28;19932;-77
2023/10/18 15:37:13;;;;;;;;;;;;;;;;;;5035821;28;19956;-77
2023/10/18 15:39:40;;;;;;;;;;;;;;;;;;5035945;28;19936;-77
2023/10/18 15:42:09;;;;;;;;;;;;;;;;;;5036185;28;19932;-77
2023/10/18 15:44:37;;;;;;;;;;;;;;;;;;5036634;28;19940;-78
2023/10/18 15:47:04;;;;;;;;;;;;;;;;;;5036388;28;19925;-78
2023/10/18 15:49:31;;;;;;;;;;;;;;;;;;5036669;28;19925;-78
2023/10/18 15:51:59;;;;;;;;;;;;;;;;;;5035946;28;19925;-79
2023/10/18 15:54:26;;;;;;;;;;;;;;;;;;5035768;28;20017;-77
2023/10/18 15:56:53;;;;;;;;;;;;;;;;;;5035735;28;19925;-78
2023/10/18 15:59:20;;;;;;;;;;;;;;;;;;5035876;28;20409;-78
2023/10/18 16:01:47;;;;;;;;;;;;;;;;;;5039857;28;19933;-77
2023/10/18 16:04:17;;;;;;;;;;;;;;;;;;5040755;28;19932;-78
2023/10/18 16:06:45;;;;;;;;;;;;;;;;;;5037295;28;20441;-76
2023/10/18 16:09:13;;;;;;;;;;;;;;;;;;5035733;28;20476;-76
2023/10/18 16:11:42;;;;;;;;;;;;;;;;;;5035202;28;19925;-76
2023/10/18 16:14:10;;;;;;;;;;;;;;;;;;5035745;28;20023;-78
2023/10/18 16:16:38;;;;;;;;;;;;;;;;;;5035967;28;19925;-76
2023/10/18 16:19:05;;;;;;;;;;;;;;;;;;5036104;28;20462;-77
2023/10/18 16:21:32;;;;;;;;;;;;;;;;;;5035373;28;19925;-76
2023/10/18 16:23:59;;;;;;;;;;;;;;;;;;5034798;28;20397;-76
2023/10/18 16:26:26;;;;;;;;;;;;;;;;;;5034855;28;19932;-77
2023/10/18 16:28:53;;;;;;;;;;;;;;;;;;5034920;28;19967;-77
2023/10/18 16:31:23;;;;;;;;;;;;;;;;;;5034825;28;20421;-77
2023/10/18 16:33:50;;;;;;;;;;;;;;;;;;5034629;28;19933;-78
2023/10/18 16:36:17;;;;;;;;;;;;;;;;;;5034717;28;20023;-78
2023/10/18 16:38:44;;;;;;;;;;;;;;;;;;5034562;28;19925;-77
2023/10/18 16:41:13;;;;;;;;;;;;;;;;;;5034490;28;20290;-77
2023/10/18 16:43:41;;;;;;;;;;;;;;;;;;5034706;28;20023;-76
2023/10/18 16:46:08;;;;;;;;;;;;;;;;;;5034460;28;19972;-75
2023/10/18 16:48:35;;;;;;;;;;;;;;;;;;5034685;28;19925;-76
2023/10/18 16:51:05;;;;;;;;;;;;;;;;;;5034911;28;19925;-76
2023/10/18 16:53:32;;;;;;;;;;;;;;;;;;5035943;28;19925;-77
2023/10/18 16:55:59;;;;;;;;;;;;;;;;;;5035460;28;19932;-78
2023/10/18 16:58:26;;;;;;;;;;;;;;;;;;5035568;28;19925;-77
2023/10/18 17:00:53;;;;;;;;;;;;;;;;;;5035602;28;19925;-78
2023/10/18 17:03:20;;;;;;;;;;;;;;;;;;5034814;28;20390;-77
2023/10/18 17:05:47;;;;;;;;;;;;;;;;;;5035282;28;19925;-77
2023/10/18 17:08:14;;;;;;;;;;;;;;;;;;5035227;28;19925;-78
2023/10/18 17:10:42;;;;;;;;;;;;;;;;;;5035000;28;19925;-76
2023/10/18 17:13:11;;;;;;;;;;;;;;;;;;5034855;28;19928;-76
2023/10/18 17:15:38;;;;;;;;;;;;;;;;;;5035362;28;19925;-76
2023/10/18 17:18:06;;;;;;;;;;;;;;;;;;5034383;28;19925;-76
2023/10/18 17:20:33;;;;;;;;;;;;;;;;;;5036707;28;20382;-76
2023/10/18 17:23:00;;;;;;;;;;;;;;;;;;5036838;28;19932;-76
2023/10/18 17:25:27;;;;;;;;;;;;;;;;;;5036176;28;19925;-75
2023/10/18 17:27:55;;;;;;;;;;;;;;;;;;5034999;28;19925;-76
2023/10/18 17:30:23;;;;;;;;;;;;;;;;;;5035069;28;20350;-76
2023/10/18 17:32:50;;;;;;;;;;;;;;;;;;5034675;28;20480;-77
2023/10/18 17:35:17;;;;;;;;;;;;;;;;;;5034534;28;20345;-77
2023/10/18 17:37:45;;;;;;;;;;;;;;;;;;5034455;28;20370;-76
2023/10/18 17:40:13;;;;;;;;;;;;;;;;;;5034933;28;19925;-76
2023/10/18 17:42:40;;;;;;;;;;;;;;;;;;5034791;28;19933;-77
2023/10/18 17:45:10;;;;;;;;;;;;;;;;;;5035111;28;19926;-77
2023/10/18 17:47:36;;;;;;;;;;;;;;;;;;5034676;28;19925;-76
2023/10/18 17:50:04;;;;;;;;;;;;;;;;;;5035112;28;20302;-77
2023/10/18 17:52:31;;;;;;;;;;;;;;;;;;5034495;28;19992;-76
2023/10/18 17:54:58;;;;;;;;;;;;;;;;;;5033805;28;20379;-77
2023/10/18 17:57:29;;;;;;;;;;;;;;;;;;5034518;28;19925;-77
2023/10/18 17:59:56;;;;;;;;;;;;;;;;;;5034609;28;19935;-75
2023/10/18 18:02:23;;;;;;;;;;;;;;;;;;5034101;28;19926;-75
2023/10/18 18:04:52;;;;;;;;;;;;;;;;;;5034189;28;19925;-76
2023/10/18 18:07:21;;;;;;;;;;;;;;;;;;5034045;28;19972;-77
2023/10/18 18:09:48;;;;;;;;;;;;;;;;;;5034155;28;19975;-76
2023/10/18 18:12:17;;;;;;;;;;;;;;;;;;5034398;28;20015;-75
2023/10/18 18:14:44;;;;;;;;;;;;;;;;;;5033704;28;20334;-75
2023/10/18 18:17:13;;;;;;;;;;;;;;;;;;5034256;28;19929;-74
2023/10/18 18:19:41;;;;;;;;;;;;;;;;;;5034058;28;20458;-75
2023/10/18 18:22:08;;;;;;;;;;;;;;;;;;5034147;28;19925;-74
2023/10/18 18:24:35;;;;;;;;;;;;;;;;;;5034251;28;19925;-76
2023/10/18 18:27:02;;;;;;;;;;;;;;;;;;5033730;28;19971;-75
2023/10/18 18:29:29;;;;;;;;;;;;;;;;;;5036885;28;19925;-75
2023/10/18 18:31:57;;;;;;;;;;;;;;;;;;5037397;28;20402;-77
2023/10/18 18:34:24;;;;;;;;;;;;;;;;;;5037752;28;19925;-76
2023/10/18 18:36:51;;;;;;;;;;;;;;;;;;5037887;28;19929;-75
2023/10/18 18:39:20;;;;;;;;;;;;;;;;;;5040672;28;20298;-74
2023/10/18 18:41:48;;;;;;;;;;;;;;;;;;5038791;28;19932;-75
2023/10/18 18:44:15;;;;;;;;;;;;;;;;;;5038351;28;20039;-75
2023/10/18 18:46:43;;;;;;;;;;;;;;;;;;5040179;28;19925;-79
2023/10/18 18:49:10;;;;;;;;;;;;;;;;;;5038969;28;20011;-76
2023/10/18 18:51:37;;;;;;;;;;;;;;;;;;5037243;28;20378;-77
2023/10/18 18:54:05;;;;;;;;;;;;;;;;;;5036996;28;19931;-76
2023/10/18 18:56:32;;;;;;;;;;;;;;;;;;5037841;28;20003;-78
2023/10/18 18:58:59;;;;;;;;;;;;;;;;;;5038166;28;19925;-78
2023/10/18 19:01:35;;;;;;;;;;;;;;;;;;5038893;28;19929;-76
2023/10/18 19:04:02;;;;;;;;;;;;;;;;;;5038530;28;19925;-76
2023/10/18 19:06:30;;;;;;;;;;;;;;;;;;5040307;28;20020;-78
2023/10/18 19:08:57;;;;;;;;;;;;;;;;;;5046092;28;20067;-78
2023/10/18 19:11:26;;;;;;;;;;;;;;;;;;5043449;28;19925;-78
2023/10/18 19:13:52;;;;;;;;;;;;;;;;;;5037484;28;19926;-77
2023/10/18 19:16:19;;;;;;;;;;;;;;;;;;5037933;28;19932;-79
2023/10/18 19:18:46;;;;;;;;;;;;;;;;;;5037152;28;20398;-77
2023/10/18 19:21:14;;;;;;;;;;;;;;;;;;5039544;28;19933;-78
2023/10/18 19:23:41;;;;;;;;;;;;;;;;;;5043199;28;19965;-77
2023/10/18 19:26:08;;;;;;;;;;;;;;;;;;5040618;28;20394;-77
2023/10/18 19:28:35;;;;;;;;;;;;;;;;;;5043126;28;19932;-77
2023/10/18 19:31:03;;;;;;;;;;;;;;;;;;5042653;28;19936;-77
2023/10/18 19:33:30;;;;;;;;;;;;;;;;;;5040358;28;19925;-77
2023/10/18 19:35:58;;;;;;;;;;;;;;;;;;5038882;28;19925;-77
2023/10/18 19:38:25;;;;;;;;;;;;;;;;;;5035853;28;19932;-78
2023/10/18 19:40:52;;;;;;;;;;;;;;;;;;5035625;28;19936;-76
2023/10/18 19:43:20;;;;;;;;;;;;;;;;;;5035454;28;19932;-77
2023/10/18 19:45:46;;;;;;;;;;;;;;;;;;5035933;28;19932;-77
2023/10/18 19:48:13;;;;;;;;;;;;;;;;;;5035741;28;19948;-77
2023/10/18 19:50:41;;;;;;;;;;;;;;;;;;5039104;28;19925;-79
2023/10/18 19:53:08;;;;;;;;;;;;;;;;;;5038768;28;19947;-77
2023/10/18 19:55:35;;;;;;;;;;;;;;;;;;5035944;28;19925;-78
2023/10/18 19:58:02;;;;;;;;;;;;;;;;;;5037360;28;19929;-77
2023/10/18 20:00:29;;;;;;;;;;;;;;;;;;5035900;28;19925;-77
2023/10/18 20:02:56;;;;;;;;;;;;;;;;;;5035262;28;19929;-77
2023/10/18 20:05:23;;;;;;;;;;;;;;;;;;5035095;28;19925;-77
2023/10/18 20:07:51;;;;;;;;;;;;;;;;;;5034786;28;20298;-78
2023/10/18 20:10:17;;;;;;;;;;;;;;;;;;5035429;28;20023;-77
2023/10/18 20:12:44;;;;;;;;;;;;;;;;;;5035502;28;19932;-77
2023/10/18 20:15:11;;;;;;;;;;;;;;;;;;5035153;28;19925;-77
2023/10/18 20:17:38;;;;;;;;;;;;;;;;;;5035083;28;20023;-77
2023/10/18 20:20:08;;;;;;;;;;;;;;;;;;5035874;28;19925;-78
2023/10/18 20:22:35;;;;;;;;;;;;;;;;;;5034938;28;20004;-77
2023/10/18 20:25:03;;;;;;;;;;;;;;;;;;5035895;28;19936;-77
2023/10/18 20:27:30;;;;;;;;;;;;;;;;;;5035568;28;20405;-77
2023/10/18 20:29:57;;;;;;;;;;;;;;;;;;5035491;28;19932;-77
2023/10/18 20:32:24;;;;;;;;;;;;;;;;;;5034765;28;20263;-75
2023/10/18 20:34:51;;;;;;;;;;;;;;;;;;5034460;28;19931;-75
2023/10/18 20:37:17;;;;;;;;;;;;;;;;;;5034558;28;20036;-75
2023/10/18 20:39:44;;;;;;;;;;;;;;;;;;5034355;28;19925;-75
2023/10/18 20:42:11;;;;;;;;;;;;;;;;;;5035352;28;19947;-75
2023/10/18 20:44:40;;;;;;;;;;;;;;;;;;5034988;28;19925;-75
2023/10/18 20:47:07;;;;;;;;;;;;;;;;;;5034380;28;19925;-76
2023/10/18 20:49:34;;;;;;;;;;;;;;;;;;5035516;28;19933;-78
2023/10/18 20:52:06;;;;;;;;;;;;;;;;;;5034560;28;20383;-77
2023/10/18 20:54:36;;;;;;;;;;;;;;;;;;5037589;28;20280;-78
2023/10/18 20:57:06;;;;;;;;;;;;;;;;;;5037033;28;19936;-78
2023/10/18 20:59:33;;;;;;;;;;;;;;;;;;5036478;28;19935;-78
2023/10/18 21:02:06;;;;;;;;;;;;;;;;;;5034822;28;19925;-78
2023/10/18 21:04:33;;;;;;;;;;;;;;;;;;5035579;28;19925;-78
2023/10/18 21:07:00;;;;;;;;;;;;;;;;;;5050157;28;19925;-79
2023/10/18 21:09:30;;;;;;;;;;;;;;;;;;5043861;28;19932;-78
2023/10/18 21:11:57;;;;;;;;;;;;;;;;;;5038751;28;20012;-77
2023/10/18 21:14:24;;;;;;;;;;;;;;;;;;5037547;28;19925;-78
2023/10/18 21:16:51;;;;;;;;;;;;;;;;;;5039151;28;19925;-78
2023/10/18 21:19:19;;;;;;;;;;;;;;;;;;5034514;28;20367;-77
2023/10/18 21:21:46;;;;;;;;;;;;;;;;;;5034624;28;19926;-77
2023/10/18 21:24:13;;;;;;;;;;;;;;;;;;5033481;28;19933;-77
2023/10/18 21:26:40;;;;;;;;;;;;;;;;;;5034167;28;19928;-76
2023/10/18 21:29:08;;;;;;;;;;;;;;;;;;5033874;28;19925;-76
2023/10/18 21:31:35;;;;;;;;;;;;;;;;;;5033594;28;20375;-75
2023/10/18 21:34:03;;;;;;;;;;;;;;;;;;5033756;28;19925;-76
2023/10/18 21:36:29;;;;;;;;;;;;;;;;;;5033632;28;19956;-75
2023/10/18 21:38:59;;;;;;;;;;;;;;;;;;5033208;28;20268;-76
2023/10/18 21:41:26;;;;;;;;;;;;;;;;;;5033891;28;19925;-74
2023/10/18 21:43:53;;;;;;;;;;;;;;;;;;5033646;28;19929;-76
2023/10/18 21:46:20;;;;;;;;;;;;;;;;;;5033642;28;19925;-75
2023/10/18 21:48:47;;;;;;;;;;;;;;;;;;5033308;28;20417;-76
2023/10/18 21:51:15;;;;;;;;;;;;;;;;;;5033868;28;19929;-76
2023/10/18 21:53:42;;;;;;;;;;;;;;;;;;5033507;28;19937;-75
2023/10/18 21:56:11;;;;;;;;;;;;;;;;;;5033138;28;19971;-75
2023/10/18 21:58:40;;;;;;;;;;;;;;;;;;5033734;28;19932;-77
